Time;durP1;ratioP1;P1;durP2;ratioP2;P2;SDS_P1;SDS_P2;PMS_P1;PMS_P2;Temp;Humidity;BMP_temperature;BMP_pressure;BME280_temperature;BME280_humidity;BME280_pressure;Samples;Min_cycle;Max_cycle;Signal;HPM_P1;HPM_P2
2021/12/07 00:02:07;;;;;;;1.27;0.55;;;;;;;5.01;100.00;96374.41;4995262;28;20072;-84
2021/12/07 00:04:33;;;;;;;0.30;0.30;;;;;;;4.84;100.00;96351.53;4995148;28;20029;-87
2021/12/07 00:07:00;;;;;;;0.38;0.38;;;;;;;4.82;100.00;96374.63;5011368;28;20030;-85
2021/12/07 00:09:25;;;;;;;0.30;0.30;;;;;;;4.87;100.00;96379.63;5011486;28;20029;-85
2021/12/07 00:11:52;;;;;;;0.40;0.40;;;;;;;4.83;100.00;96368.38;5010895;28;20048;-85
2021/12/07 00:14:32;;;;;;;0.55;0.55;;;;;;;4.52;100.00;96322.59;5011302;28;20030;-86
2021/12/07 00:16:58;;;;;;;0.40;0.40;;;;;;;4.58;100.00;96336.31;4996522;28;20171;-85
2021/12/07 00:19:24;;;;;;;0.20;0.20;;;;;;;4.63;100.00;96344.84;4994953;28;20481;-85
2021/12/07 00:21:50;;;;;;;0.20;0.20;;;;;;;4.75;100.00;96352.06;5010928;28;20029;-86
2021/12/07 00:24:16;;;;;;;0.57;0.40;;;;;;;4.78;100.00;96343.94;4994957;28;20507;-85
2021/12/07 00:26:43;;;;;;;0.30;0.30;;;;;;;4.78;100.00;96348.38;4994962;28;20026;-86
2021/12/07 00:29:10;;;;;;;0.20;0.20;;;;;;;4.83;100.00;96348.97;4994979;28;20096;-86
2021/12/07 00:31:40;;;;;;;0.28;0.28;;;;;;;4.91;100.00;96355.53;4994274;28;20034;-85
2021/12/07 00:36:34;;;;;;;0.10;0.10;;;;;;;4.72;100.00;96349.59;5011314;28;20053;-87
2021/12/07 00:39:00;;;;;;;0.20;0.20;;;;;;;4.80;100.00;96344.69;5010741;28;20029;-86
2021/12/07 00:41:26;;;;;;;0.10;0.10;;;;;;;4.90;100.00;96364.41;4994677;28;20112;-86
2021/12/07 00:43:51;;;;;;;1.02;0.85;;;;;;;4.84;100.00;96351.53;5010790;28;20481;-86
2021/12/07 00:46:19;;;;;;;1.13;1.02;;;;;;;4.85;100.00;96345.31;4994560;28;20022;-86
2021/12/07 00:48:44;;;;;;;0.35;0.35;;;;;;;4.83;100.00;96344.53;4979340;28;20037;-86
2021/12/07 00:51:11;;;;;;;0.20;0.20;;;;;;;4.82;100.00;96339.34;5011107;28;20029;-86
2021/12/07 00:53:36;;;;;;;0.30;0.30;;;;;;;4.78;100.00;96337.78;4994303;28;20030;-86
2021/12/07 00:56:03;;;;;;;2.25;0.93;;;;;;;4.82;100.00;96337.53;5010780;28;20029;-85
2021/12/07 00:58:29;;;;;;;0.63;0.63;;;;;;;4.81;100.00;96348.22;5011046;28;20038;-86
2021/12/07 01:01:16;;;;;;;0.52;0.52;;;;;;;4.72;100.00;96327.56;5010416;28;20397;-85
2021/12/07 01:03:43;;;;;;;0.52;0.52;;;;;;;4.79;100.00;96331.56;4994807;28;20029;-85
2021/12/07 01:06:28;;;;;;;4.60;1.02;;;;;;;4.80;100.00;96326.16;4994819;28;20579;-85
2021/12/07 01:25:06;;;;;;;0.10;0.10;;;;;;;4.50;100.00;96272.34;5011122;28;20029;-85
2021/12/07 01:27:32;;;;;;;0.20;0.20;;;;;;;4.67;100.00;96279.31;4993903;28;20029;-85
2021/12/07 02:01:48;;;;;;;0.40;0.40;;;;;;;4.48;100.00;96242.50;5006856;28;20456;-85
2021/12/07 02:04:14;;;;;;;0.20;0.20;;;;;;;4.51;100.00;96237.00;4997462;28;20030;-85
2021/12/07 02:06:40;;;;;;;0.30;0.30;;;;;;;4.41;100.00;96217.31;4997476;28;20030;-86
2021/12/07 02:09:12;;;;;;;2.28;0.88;;;;;;;4.71;100.00;96243.75;5005140;28;20101;-93
2021/12/07 02:15:06;;;;;;;0.93;0.38;;;;;;;4.67;100.00;96224.56;5033294;28;20048;-93
2021/12/07 02:17:39;;;;;;;0.82;0.80;;;;;;;4.49;100.00;96190.41;5017989;28;20102;-94
2021/12/07 02:20:12;;;;;;;0.77;0.70;;;;;;;4.31;100.00;96158.78;5033801;28;20042;-92
2021/12/07 02:22:38;;;;;;;0.63;0.63;;;;;;;4.30;100.00;96154.44;5015901;28;20417;-93
2021/12/07 02:25:06;;;;;;;0.50;0.50;;;;;;;4.44;100.00;96171.28;5009999;28;20045;-92
2021/12/07 02:27:31;;;;;;;1.05;1.05;;;;;;;4.42;100.00;96155.50;5006955;28;20093;-95
2021/12/07 02:30:05;;;;;;;0.47;0.47;;;;;;;4.35;100.00;96155.00;5024027;28;20072;-93
2021/12/07 02:32:30;;;;;;;0.35;0.35;;;;;;;4.47;100.00;96150.78;5008884;28;20036;-93
2021/12/07 02:34:59;;;;;;;1.75;0.88;;;;;;;4.45;100.00;96150.03;5010963;28;20054;-93
2021/12/07 02:37:28;;;;;;;0.85;0.77;;;;;;;4.43;100.00;96148.41;5010062;28;20046;-92
2021/12/07 02:39:55;;;;;;;0.73;0.68;;;;;;;4.44;100.00;96147.47;5010351;28;20144;-93
2021/12/07 02:42:22;;;;;;;3.70;0.60;;;;;;;4.59;100.00;96160.63;5009799;28;20032;-93
2021/12/07 02:44:50;;;;;;;0.35;0.35;;;;;;;4.45;100.00;96150.03;5009024;28;20050;-94
2021/12/07 02:47:17;;;;;;;0.95;0.93;;;;;;;4.49;100.00;96175.34;5009710;28;20049;-91
2021/12/07 02:49:43;;;;;;;0.30;0.30;;;;;;;4.77;100.00;96214.25;5008314;28;20029;-92
2021/12/07 02:52:09;;;;;;;0.75;0.75;;;;;;;4.80;100.00;96199.03;5008038;28;20030;-93
2021/12/07 02:54:36;;;;;;;0.95;0.95;;;;;;;4.44;100.00;96150.97;5008599;28;20037;-93
2021/12/07 02:57:05;;;;;;;0.30;0.30;;;;;;;4.49;100.00;96178.00;5006504;28;20038;-92
2021/12/07 02:59:31;;;;;;;0.93;0.70;;;;;;;4.53;100.00;96174.22;5005266;28;20531;-92
2021/12/07 03:02:02;;;;;;;0.38;0.38;;;;;;;4.70;100.00;96213.81;5005173;28;20038;-93
2021/12/07 03:04:39;;;;;;;0.40;0.40;;;;;;;4.58;100.00;96172.19;5004629;28;20026;-93
2021/12/07 03:07:22;;;;;;;0.30;0.30;;;;;;;4.83;100.00;96204.13;5005495;28;20080;-91
2021/12/07 03:28:35;;;;;;;0.93;0.90;;;;;;;4.46;100.00;96135.81;5021042;28;20048;-93
2021/12/07 03:31:02;;;;;;;0.77;0.77;;;;;;;4.78;100.00;96232.72;5008976;28;20034;-93
2021/12/07 03:33:29;;;;;;;0.20;0.20;;;;;;;4.25;100.00;96145.91;5013605;28;20034;-92
2021/12/07 03:35:58;;;;;;;0.50;0.50;;;;;;;4.31;100.00;96163.22;5012595;28;20052;-93
2021/12/07 03:38:24;;;;;;;0.20;0.20;;;;;;;4.29;100.00;96170.41;5011826;28;20036;-93
2021/12/07 03:40:50;;;;;;;0.10;0.10;;;;;;;4.12;100.00;96144.09;5011875;28;20105;-93
2021/12/07 03:43:16;;;;;;;0.28;0.28;;;;;;;4.07;100.00;96138.22;4996722;28;20034;-94
2021/12/07 03:45:43;;;;;;;5.40;0.70;;;;;;;4.11;100.00;96140.59;5002879;28;20045;-93
2021/12/07 03:48:15;;;;;;;0.20;0.20;;;;;;;4.09;100.00;96146.94;5018377;28;20037;-94
2021/12/07 03:50:43;;;;;;;3.60;1.20;;;;;;;4.05;100.00;96140.97;5034037;28;20083;-93
2021/12/07 03:53:09;;;;;;;0.95;0.90;;;;;;;4.34;100.00;96184.22;5016068;28;20017;-93
2021/12/07 03:55:35;;;;;;;0.95;0.90;;;;;;;4.36;100.00;96187.63;5008033;28;20030;-93
2021/12/07 03:58:02;;;;;;;0.22;0.22;;;;;;;4.14;100.00;96140.41;5005573;28;20026;-93
2021/12/07 04:00:29;;;;;;;0.30;0.30;;;;;;;4.01;100.00;96134.16;5012412;28;20033;-94
2021/12/07 04:02:58;;;;;;;0.50;0.50;;;;;;;4.28;100.00;96173.97;5012497;28;20018;-93
2021/12/07 04:05:26;;;;;;;0.20;0.20;;;;;;;3.89;100.00;96128.72;5017471;28;20025;-93
2021/12/07 04:08:36;;;;;;;0.40;0.40;;;;;;;3.98;100.00;96150.19;5002120;28;20010;-94
2021/12/07 04:14:40;;;;;;;0.60;0.60;;;;;;;4.36;100.00;96214.09;5032317;28;20081;-92
2021/12/07 04:23:51;;;;;;;4.18;1.27;;;;;;;3.93;100.00;96148.75;5206438;23;20042;-93
2021/12/07 04:26:22;;;;;;;1.15;1.05;;;;;;;4.25;100.00;96204.13;5023554;28;20041;-93
2021/12/07 04:32:24;;;;;;;1.95;0.55;;;;;;;4.29;100.00;96216.25;5049760;28;20052;-92
2021/12/07 04:34:53;;;;;;;0.52;0.52;;;;;;;4.24;100.00;96209.53;5003732;28;20439;-89
2021/12/07 04:37:18;;;;;;;0.50;0.50;;;;;;;3.82;100.00;96144.09;5009949;28;20029;-87
2021/12/07 04:39:44;;;;;;;0.77;0.77;;;;;;;3.83;100.00;96162.53;5005501;28;20037;-90
2021/12/07 04:42:10;;;;;;;2.00;1.83;;;;;;;3.83;100.00;96159.88;5000361;28;20022;-92
2021/12/07 04:44:42;;;;;;;0.38;0.38;;;;;;;3.76;100.00;96140.00;5011298;28;20533;-92
2021/12/07 04:47:17;;;;;;;0.40;0.40;;;;;;;3.99;100.00;96166.91;5016916;28;20041;-92
2021/12/07 05:00:16;;;;;;;2.63;0.70;;;;;;;4.00;100.00;96213.59;5028243;28;20064;-89
2021/12/07 05:02:45;;;;;;;2.67;1.80;;;;;;;3.81;100.00;96185.53;5011918;28;20051;-93
2021/12/07 05:05:13;;;;;;;0.60;0.60;;;;;;;3.79;100.00;96192.72;5005397;28;20033;-93
2021/12/07 05:07:46;;;;;;;0.47;0.47;;;;;;;3.57;100.00;96136.72;5007304;28;20028;-93
2021/12/07 05:10:22;;;;;;;;;;;;;;;4.03;100.00;96221.34;5012699;28;20029;-93
2021/12/07 05:18:38;;;;;;;0.50;0.50;;;;;;;3.72;100.00;96182.59;5025350;28;20033;-93
2021/12/07 05:40:20;;;;;;;0.50;0.50;;;;;;;3.52;100.00;96198.72;5015289;28;20038;-88
2021/12/07 05:42:46;;;;;;;0.50;0.50;;;;;;;3.41;100.00;96198.47;4989906;28;20029;-88
2021/12/07 05:45:18;;;;;;;0.70;0.70;;;;;;;3.33;100.00;96182.16;4981232;28;20482;-88
2021/12/07 05:47:44;;;;;;;2.70;1.13;;;;;;;3.19;100.00;96190.88;4985865;28;20413;-89
2021/12/07 05:50:12;;;;;;;1.30;1.27;;;;;;;3.29;100.00;96213.22;4985321;28;20034;-77
2021/12/07 05:52:38;;;;;;;1.15;1.13;;;;;;;3.29;100.00;96216.69;4981673;28;20053;-89
2021/12/07 05:55:05;;;;;;;1.90;1.60;;;;;;;3.07;100.00;96183.63;4968796;28;20076;-89
2021/12/07 05:57:31;;;;;;;0.40;0.40;;;;;;;3.20;100.00;96203.97;4984319;28;20441;-86
2021/12/07 05:59:57;;;;;;;3.63;1.85;;;;;;;3.10;100.00;96194.00;4984214;28;20032;-89
2021/12/07 06:02:22;;;;;;;2.78;0.85;;;;;;;3.04;100.00;96181.13;4984090;28;20030;-89
2021/12/07 06:04:48;;;;;;;10.85;6.10;;;;;;;3.13;100.00;96191.19;4984330;28;20507;-89
2021/12/07 06:07:14;;;;;;;6.40;2.22;;;;;;;3.24;100.00;96215.22;4984766;28;20184;-90
2021/12/07 06:09:39;;;;;;;1.38;1.27;;;;;;;3.11;100.00;96203.63;4984445;28;20112;-90
2021/12/07 06:12:05;;;;;;;1.67;1.58;;;;;;;2.97;100.00;96177.97;4985304;28;20037;-88
2021/12/07 06:14:35;;;;;;;1.15;1.10;;;;;;;2.91;100.00;96190.66;4984224;28;20070;-91
2021/12/07 06:17:00;;;;;;;1.48;1.38;;;;;;;2.74;100.00;96179.19;4985481;28;20042;-89
2021/12/07 06:19:27;;;;;;;0.50;0.50;;;;;;;2.80;100.00;96214.16;4983812;28;20394;-89
2021/12/07 06:21:53;;;;;;;1.63;1.52;;;;;;;2.58;100.00;96198.59;4984050;28;20080;-89
2021/12/07 06:24:19;;;;;;;1.38;1.27;;;;;;;2.56;100.00;96184.59;4984311;28;20440;-89
2021/12/07 06:26:44;;;;;;;3.38;2.47;;;;;;;2.62;100.00;96208.88;5000092;28;20033;-90
2021/12/07 06:29:10;;;;;;;2.08;1.65;;;;;;;2.59;100.00;96206.41;4999092;28;20025;-88
2021/12/07 06:31:36;;;;;;;3.08;2.15;;;;;;;2.49;100.00;96181.41;4999247;28;20515;-89
2021/12/07 06:34:01;;;;;;;1.92;1.58;;;;;;;2.52;100.00;96199.72;4999632;28;20386;-89
2021/12/07 06:36:27;;;;;;;3.50;2.45;;;;;;;2.40;100.00;96199.53;5000445;28;20037;-88
2021/12/07 06:38:53;;;;;;;3.30;2.13;;;;;;;2.40;100.00;96197.72;5015637;28;20025;-89
2021/12/07 06:41:18;;;;;;;4.72;2.33;;;;;;;2.36;100.00;96193.56;4999780;28;20116;-89
2021/12/07 06:43:44;;;;;;;3.40;2.38;;;;;;;2.53;100.00;96209.34;4999528;28;20136;-90
2021/12/07 06:46:10;;;;;;;4.13;3.17;;;;;;;2.44;100.00;96191.38;4998917;28;20022;-89
2021/12/07 06:48:36;;;;;;;4.82;2.15;;;;;;;2.31;100.00;96185.00;5016820;28;20564;-90
2021/12/07 06:51:02;;;;;;;2.53;1.73;;;;;;;2.49;100.00;96221.00;4999829;28;20025;-89
2021/12/07 06:53:35;;;;;;;2.25;2.05;;;;;;;2.26;100.00;96187.03;5000426;28;20037;-90
2021/12/07 06:56:02;;;;;;;2.20;2.00;;;;;;;2.51;100.00;96223.56;5001253;28;20088;-90
2021/12/07 06:58:27;;;;;;;1.92;1.38;;;;;;;2.25;100.00;96195.03;4999526;28;20022;-91
2021/12/07 07:00:53;;;;;;;3.00;2.13;;;;;;;2.26;100.00;96187.03;4999453;28;20120;-89
2021/12/07 07:03:19;;;;;;;3.95;3.20;;;;;;;2.47;100.00;96212.31;4999987;28;20501;-91
2021/12/07 07:05:44;;;;;;;3.60;2.78;;;;;;;2.52;100.00;96205.00;4999052;28;20080;-89
2021/12/07 07:08:10;;;;;;;3.17;2.90;;;;;;;2.56;100.00;96203.91;4999323;28;20466;-89
2021/12/07 07:10:36;;;;;;;4.32;2.75;;;;;;;2.55;100.00;96194.28;5015886;28;20057;-89
2021/12/07 07:13:01;;;;;;;1.67;1.58;;;;;;;2.41;100.00;96174.84;4999984;28;20567;-88
2021/12/07 07:15:27;;;;;;;1.55;1.45;;;;;;;2.35;100.00;96167.25;5000557;28;20083;-88
2021/12/07 07:17:52;;;;;;;2.75;1.52;;;;;;;2.59;100.00;96205.53;4998785;28;20056;-89
2021/12/07 07:20:18;;;;;;;2.30;2.10;;;;;;;2.45;100.00;96186.94;4998991;28;20033;-89
2021/12/07 07:22:44;;;;;;;2.83;2.45;;;;;;;2.56;100.00;96201.28;5002975;28;20120;-89
2021/12/07 07:25:10;;;;;;;5.55;3.25;;;;;;;2.43;100.00;96189.66;5022157;28;20115;-89
2021/12/07 07:27:36;;;;;;;6.25;4.75;;;;;;;2.43;100.00;96188.81;5021649;28;20060;-89
2021/12/07 07:30:04;;;;;;;3.92;3.50;;;;;;;2.61;100.00;96204.56;5021883;28;20025;-89
2021/12/07 07:32:29;;;;;;;4.88;3.30;;;;;;;2.42;100.00;96172.13;5021210;28;20044;-89
2021/12/07 07:34:55;;;;;;;3.13;2.78;;;;;;;2.52;100.00;96183.91;5020854;28;20025;-88
2021/12/07 07:37:21;;;;;;;3.50;3.08;;;;;;;2.41;100.00;96186.25;5037424;28;20470;-89
2021/12/07 07:39:46;;;;;;;6.93;4.13;;;;;;;2.35;100.00;96183.94;5021174;28;20381;-86
2021/12/07 07:42:12;;;;;;;4.55;3.63;;;;;;;2.32;100.00;96194.66;5021519;28;20017;-88
2021/12/07 07:44:37;;;;;;;3.78;3.35;;;;;;;2.26;100.00;96184.41;5025102;28;20064;-88
2021/12/07 07:47:04;;;;;;;4.97;3.33;;;;;;;2.25;100.00;96180.06;5021189;28;20031;-89
2021/12/07 07:49:29;;;;;;;3.45;3.15;;;;;;;2.22;100.00;96188.13;5021119;28;20021;-88
2021/12/07 07:51:55;;;;;;;7.53;4.45;;;;;;;2.35;100.00;96186.56;5021610;28;20102;-89
2021/12/07 07:54:21;;;;;;;3.15;2.58;;;;;;;2.52;100.00;96198.91;5021536;28;20515;-89
2021/12/07 07:56:46;;;;;;;2.55;1.45;;;;;;;2.54;100.00;96170.63;5020717;28;20031;-89
2021/12/07 07:59:12;;;;;;;20.40;3.53;;;;;;;2.31;100.00;96150.72;5021878;28;20408;-88
2021/12/07 08:01:40;;;;;;;10.57;2.42;;;;;;;2.36;100.00;96164.53;5020398;28;20029;-88
2021/12/07 08:07:29;;;;;;;3.10;2.25;;;;;;;2.58;100.00;96166.91;5055358;28;20083;-90
2021/12/07 08:09:55;;;;;;;5.15;4.40;;;;;;;2.54;100.00;96171.50;5020296;28;20447;-89
2021/12/07 08:12:20;;;;;;;5.22;2.85;;;;;;;2.49;100.00;96170.88;5019647;28;20029;-89
2021/12/07 08:14:46;;;;;;;7.03;3.47;;;;;;;2.28;100.00;96158.78;5019761;28;20029;-88
2021/12/07 08:17:12;;;;;;;8.68;6.10;;;;;;;2.18;100.00;96168.13;5020037;28;20467;-88
2021/12/07 08:19:38;;;;;;;9.13;4.40;;;;;;;2.37;100.00;96165.41;5020249;28;20025;-90
2021/12/07 08:22:04;;;;;;;6.82;4.20;;;;;;;2.57;100.00;96189.81;5021017;28;20068;-89
2021/12/07 08:24:29;;;;;;;4.97;4.40;;;;;;;2.50;100.00;96174.34;5020472;28;20580;-88
2021/12/07 08:26:55;;;;;;;1.40;1.30;;;;;;;2.74;100.00;96189.75;5019869;28;20033;-88
2021/12/07 08:29:21;;;;;;;1.08;1.08;;;;;;;2.76;100.00;96178.28;5020675;28;20029;-89
2021/12/07 08:31:47;;;;;;;4.43;2.72;;;;;;;2.89;100.00;96189.91;5037655;28;20021;-88
2021/12/07 08:34:12;;;;;;;2.08;1.95;;;;;;;2.84;100.00;96186.63;5020908;28;20032;-88
2021/12/07 08:36:40;;;;;;;7.38;3.50;;;;;;;2.80;100.00;96179.81;5020771;28;20049;-89
2021/12/07 08:39:06;;;;;;;3.65;3.10;;;;;;;2.59;100.00;96152.75;5021811;28;20118;-89
2021/12/07 08:41:32;;;;;;;4.93;3.33;;;;;;;2.70;100.00;96176.81;5020889;28;20029;-89
2021/12/07 08:43:58;;;;;;;11.00;5.55;;;;;;;2.83;100.00;96171.75;5020867;28;20083;-89
2021/12/07 08:46:25;;;;;;;5.72;3.95;;;;;;;2.85;100.00;96175.13;5021158;28;20464;-89
2021/12/07 08:48:51;;;;;;;3.22;2.92;;;;;;;2.91;100.00;96190.66;5021432;28;20039;-89
2021/12/07 08:51:16;;;;;;;5.60;4.75;;;;;;;2.85;100.00;96177.78;5021734;28;20426;-91
2021/12/07 08:53:53;;;;;;;3.83;3.53;;;;;;;3.00;100.00;96200.72;5021138;28;20032;-89
2021/12/07 09:01:49;;;;;;;12.27;9.25;;;;;;;2.99;100.00;96194.56;5049431;28;20032;-75
2021/12/07 09:04:17;;;;;;;6.93;5.57;;;;;;;2.95;100.00;96173.72;5001327;28;20060;-90
2021/12/07 09:06:44;;;;;;;4.65;3.17;;;;;;;3.12;100.00;96192.13;5002076;28;20120;-89
2021/12/07 09:09:10;;;;;;;7.25;4.43;;;;;;;2.93;100.00;96175.56;5000276;28;20028;-90
2021/12/07 09:11:36;;;;;;;5.32;3.28;;;;;;;2.91;100.00;96174.81;5001729;28;20092;-89
2021/12/07 09:14:01;;;;;;;5.18;4.32;;;;;;;3.05;100.00;96186.31;5002381;28;20034;-89
2021/12/07 09:16:27;;;;;;;3.20;2.38;;;;;;;2.97;100.00;96175.34;5017328;28;20025;-88
2021/12/07 09:18:53;;;;;;;20.63;4.60;;;;;;;2.97;100.00;96191.19;5001632;28;20511;-90
2021/12/07 09:21:19;;;;;;;8.95;4.80;;;;;;;3.04;100.00;96194.34;5001286;28;20059;-88
2021/12/07 09:23:46;;;;;;;14.68;7.20;;;;;;;2.96;100.00;96178.91;5000607;28;20041;-88
2021/12/07 09:26:13;;;;;;;6.97;5.43;;;;;;;2.94;100.00;96169.38;5001203;28;20029;-89
2021/12/07 09:28:39;;;;;;;9.48;7.53;;;;;;;2.99;100.00;96183.16;5000763;28;20116;-88
2021/12/07 09:31:12;;;;;;;19.55;8.18;;;;;;;2.90;100.00;96173.94;5001115;28;20029;-88
2021/12/07 09:37:00;;;;;;;8.52;5.07;;;;;;;2.68;100.00;96155.78;5034512;28;20053;-88
2021/12/07 09:39:26;;;;;;;6.57;4.85;;;;;;;2.62;100.00;96164.00;5000232;28;20022;-87
2021/12/07 09:41:52;;;;;;;5.20;4.45;;;;;;;2.59;100.00;96155.41;5000660;28;20048;-88
2021/12/07 09:44:17;;;;;;;5.13;4.60;;;;;;;2.73;100.00;96171.38;5000536;28;20029;-89
2021/12/07 09:46:44;;;;;;;6.43;5.78;;;;;;;2.71;100.00;96162.66;5000665;28;20059;-89
2021/12/07 09:49:11;;;;;;;25.25;5.28;;;;;;;2.57;100.00;96155.50;5001258;28;20167;-89
2021/12/07 09:51:37;;;;;;;18.42;8.15;;;;;;;2.52;100.00;96152.22;5000988;28;20129;-91
2021/12/07 09:54:04;;;;;;;14.88;7.45;;;;;;;2.85;100.00;96164.56;5000231;28;20393;-87
2021/12/07 09:56:32;;;;;;;10.13;8.07;;;;;;;2.78;100.00;96147.34;5000405;28;20562;-92
2021/12/07 09:59:00;;;;;;;13.98;9.18;;;;;;;2.96;100.00;96164.84;5000714;28;20029;-90
2021/12/07 10:01:27;;;;;;;8.93;6.18;;;;;;;2.93;100.00;96159.72;5000452;28;20032;-87
2021/12/07 10:03:54;;;;;;;8.23;6.70;;;;;;;2.81;100.00;96158.59;5008181;28;20033;-87
2021/12/07 10:06:21;;;;;;;5.68;4.97;;;;;;;2.72;100.00;96164.38;5015472;28;20557;-88
2021/12/07 10:08:48;;;;;;;14.23;5.55;;;;;;;2.62;100.00;96155.25;5023147;28;20124;-89
2021/12/07 10:11:13;;;;;;;11.13;6.95;;;;;;;2.55;100.00;96146.78;5009385;28;20480;-88
2021/12/07 10:13:41;;;;;;;5.60;4.78;;;;;;;2.69;100.00;96159.28;5006333;28;20068;-87
2021/12/07 10:16:09;;;;;;;10.85;6.05;;;;;;;2.55;100.00;96136.25;5006514;28;20080;-88
2021/12/07 10:18:36;;;;;;;5.40;4.90;;;;;;;2.49;100.00;96120.72;5007443;28;20048;-89
2021/12/07 10:21:12;;;;;;;7.53;6.05;;;;;;;2.61;100.00;96143.84;5011769;28;20037;-88
2021/12/07 10:23:51;;;;;;;5.72;4.45;;;;;;;2.54;100.00;96124.00;5004974;28;20527;-91
2021/12/07 10:26:29;;;;;;;11.43;6.18;;;;;;;2.58;100.00;96125.56;5007073;28;20540;-90
2021/12/07 10:28:59;;;;;;;11.73;7.22;;;;;;;2.76;100.00;96146.59;5031912;28;20025;-90
2021/12/07 10:31:33;;;;;;;9.98;5.30;;;;;;;2.81;100.00;96144.56;5007012;28;20397;-90
2021/12/07 10:34:01;;;;;;;25.98;7.65;;;;;;;2.50;100.00;96098.69;5042506;28;20511;-89
2021/12/07 10:36:34;;;;;;;8.23;5.97;;;;;;;2.61;100.00;96109.56;5027049;28;20040;-90
2021/12/07 10:39:03;;;;;;;18.05;11.23;;;;;;;2.82;100.00;96133.94;5018967;28;20033;-91
2021/12/07 10:41:34;;;;;;;7.68;6.75;;;;;;;2.68;100.00;96095.06;5003613;28;20039;-91
2021/12/07 10:44:17;;;;;;;10.30;6.78;;;;;;;2.95;100.00;96132.34;5019590;28;20385;-90
2021/12/07 10:46:48;;;;;;;10.30;7.25;;;;;;;2.81;100.00;96104.97;5025717;28;20037;-90
2021/12/07 10:49:28;;;;;;;5.28;4.78;;;;;;;2.97;100.00;96132.22;5026744;28;20036;-88
2021/12/07 10:52:11;;;;;;;10.63;7.88;;;;;;;2.89;100.00;96131.81;5003112;28;20032;-89
2021/12/07 10:54:51;;;;;;;6.80;4.65;;;;;;;2.72;100.00;96101.88;5003276;28;20060;-90
2021/12/07 10:57:22;;;;;;;5.07;4.72;;;;;;;2.45;100.00;96113.94;5004090;28;20453;-90
2021/12/07 10:59:56;;;;;;;7.05;5.88;;;;;;;2.62;100.00;96121.78;5016202;28;20094;-90
2021/12/07 11:02:23;;;;;;;8.60;7.20;;;;;;;2.43;100.00;96089.41;5027485;28;20029;-90
2021/12/07 11:04:49;;;;;;;5.05;4.50;;;;;;;2.51;100.00;96092.50;5020906;28;20021;-89
2021/12/07 11:07:16;;;;;;;3.78;3.28;;;;;;;2.58;100.00;96109.72;5008461;28;20523;-88
2021/12/07 11:09:48;;;;;;;7.18;5.90;;;;;;;2.42;100.00;96103.56;5023874;28;20107;-89
2021/12/07 11:12:19;;;;;;;2.55;2.35;;;;;;;2.37;100.00;96088.91;5002613;28;20120;-89
2021/12/07 11:14:51;;;;;;;4.55;4.10;;;;;;;2.33;100.00;96066.25;5017037;28;20239;-87
2021/12/07 11:17:18;;;;;;;;;;;;;;;2.62;100.00;96110.38;5017613;28;20068;-89
2021/12/07 11:19:44;;;;;;;13.20;5.72;;;;;;;2.43;100.00;96081.47;5008763;28;19913;-88
2021/12/07 11:22:13;;;;;;;3.03;2.83;;;;;;;2.46;100.00;96068.13;5018606;28;20542;-90
2021/12/07 11:24:43;;;;;;;7.35;5.22;;;;;;;2.45;100.00;96086.69;5029385;28;20069;-88
2021/12/07 11:30:00;;;;;;;6.30;5.03;;;;;;;2.22;100.00;96063.31;5032252;28;20138;-89
2021/12/07 11:32:27;;;;;;;7.30;4.30;;;;;;;2.38;100.00;96075.63;5028270;28;20041;-89
2021/12/07 11:34:53;;;;;;;10.73;6.72;;;;;;;2.48;100.00;96087.38;5031091;28;20026;-88
2021/12/07 11:37:22;;;;;;;10.45;5.93;;;;;;;2.54;100.00;96102.03;5009112;28;20040;-89
2021/12/07 11:39:55;;;;;;;8.43;7.07;;;;;;;2.49;100.00;96099.63;5014494;28;20036;-88
2021/12/07 11:42:30;;;;;;;11.98;8.20;;;;;;;2.55;100.00;96091.38;5010074;28;20039;-88
2021/12/07 11:44:57;;;;;;;7.70;4.85;;;;;;;2.67;100.00;96092.53;5014284;28;20190;-90
2021/12/07 11:47:34;;;;;;;16.38;9.98;;;;;;;2.82;100.00;96111.94;5024536;28;20036;-88
2021/12/07 11:50:29;;;;;;;19.13;9.55;;;;;;;2.76;100.00;96101.72;5028253;28;20132;-87
2021/12/07 11:53:14;;;;;;;16.35;5.93;;;;;;;2.51;100.00;96107.47;5016432;28;20040;-87
2021/12/07 11:56:00;;;;;;;13.50;8.70;;;;;;;2.58;100.00;96112.34;5025056;28;20043;-89
2021/12/07 11:58:27;;;;;;;10.30;6.72;;;;;;;2.55;100.00;96101.09;5011095;28;20026;-87
2021/12/07 12:00:55;;;;;;;8.07;6.57;;;;;;;2.50;100.00;96089.94;5015371;28;20404;-88
2021/12/07 12:03:23;;;;;;;11.15;8.52;;;;;;;2.45;100.00;96103.38;5005893;28;20024;-89
2021/12/07 12:05:50;;;;;;;4.85;4.38;;;;;;;2.29;100.00;96094.56;5018485;28;20092;-91
2021/12/07 12:08:19;;;;;;;17.63;7.07;;;;;;;2.39;100.00;96074.69;5013501;28;20075;-89
2021/12/07 12:10:48;;;;;;;8.48;5.78;;;;;;;2.48;100.00;96087.38;5001344;28;20109;-90
2021/12/07 12:13:25;;;;;;;4.80;2.80;;;;;;;2.63;100.00;96102.38;5009986;28;20026;-90
2021/12/07 12:16:03;;;;;;;1.15;1.15;;;;;;;2.58;100.00;96106.22;5000991;28;20030;-89
2021/12/07 12:18:49;;;;;;;5.35;2.75;;;;;;;2.48;100.00;96100.59;4981868;28;20040;-89
2021/12/07 12:21:24;;;;;;;1.08;0.98;;;;;;;2.34;100.00;96100.44;4999971;28;20126;-89
2021/12/07 12:23:59;;;;;;;4.18;3.50;;;;;;;2.44;100.00;96106.94;5016019;28;20512;-89
2021/12/07 12:26:26;;;;;;;8.40;3.80;;;;;;;2.44;100.00;96074.44;5041107;28;20113;-89
2021/12/07 12:28:53;;;;;;;1.67;1.58;;;;;;;2.38;100.00;96075.63;5029094;28;20517;-89
2021/12/07 12:32:08;;;;;;;3.55;3.28;;;;;;;2.50;100.00;96106.63;5007727;28;20104;-88
2021/12/07 12:34:47;;;;;;;3.55;3.22;;;;;;;2.37;100.00;96084.44;4996923;28;20106;-87
2021/12/07 12:37:17;;;;;;;2.10;1.98;;;;;;;2.60;100.00;96107.84;5006594;28;20032;-87
2021/12/07 12:39:48;;;;;;;1.13;1.13;;;;;;;2.38;100.00;96096.72;5014461;28;20029;-88
2021/12/07 12:42:36;;;;;;;9.23;3.45;;;;;;;2.41;100.00;96116.81;5026390;28;20154;-87
2021/12/07 12:45:22;;;;;;;3.58;3.28;;;;;;;2.31;100.00;96078.69;5040342;28;20120;-89
2021/12/07 12:48:09;;;;;;;1.08;1.08;;;;;;;2.47;100.00;96093.59;5001370;28;20048;-89
2021/12/07 12:50:36;;;;;;;2.05;1.92;;;;;;;2.44;100.00;96085.84;5016371;28;20120;-88
2021/12/07 12:53:23;;;;;;;1.77;1.67;;;;;;;2.35;100.00;96081.06;5032211;28;20075;-88
2021/12/07 12:55:53;;;;;;;1.15;1.15;;;;;;;2.49;100.00;96077.69;5015735;28;20409;-88
2021/12/07 12:58:21;;;;;;;1.40;1.33;;;;;;;2.60;100.00;96089.38;5016181;28;20087;-89
2021/12/07 13:01:02;;;;;;;2.15;1.95;;;;;;;2.76;100.00;96113.13;5032318;28;20033;-89
2021/12/07 13:03:43;;;;;;;1.17;1.17;;;;;;;2.77;100.00;96114.00;5032519;28;20036;-89
2021/12/07 13:06:32;;;;;;;2.40;2.20;;;;;;;2.77;100.00;96108.72;5049530;28;20025;-89
2021/12/07 13:09:18;;;;;;;3.70;2.58;;;;;;;2.69;100.00;96093.28;5048434;28;20029;-87
2021/12/07 13:11:59;;;;;;;1.23;1.15;;;;;;;2.46;100.00;96081.31;5049333;28;20053;-89
2021/12/07 13:14:25;;;;;;;4.10;3.38;;;;;;;2.73;100.00;96114.16;5032596;28;20036;-90
2021/12/07 13:17:00;;;;;;;0.93;0.93;;;;;;;2.61;100.00;96121.88;5016221;28;20025;-89
2021/12/07 13:19:28;;;;;;;11.60;1.55;;;;;;;2.61;100.00;96112.19;5017428;28;20022;-89
2021/12/07 13:21:55;;;;;;;2.10;1.48;;;;;;;2.35;100.00;96088.97;5000192;28;20116;-89
2021/12/07 13:24:36;;;;;;;2.88;1.50;;;;;;;2.49;100.00;96131.28;5016048;28;20038;-89
2021/12/07 13:27:13;;;;;;;1.35;1.25;;;;;;;2.45;100.00;96105.16;4999287;28;20025;-88
2021/12/07 13:29:45;;;;;;;0.90;0.90;;;;;;;2.60;100.00;96126.31;5000535;28;20485;-87
2021/12/07 13:32:10;;;;;;;9.18;3.70;;;;;;;2.54;100.00;96118.72;5000633;28;20059;-89
2021/12/07 13:34:38;;;;;;;3.08;1.92;;;;;;;2.57;100.00;96110.63;5016268;28;20065;-88
2021/12/07 13:37:06;;;;;;;5.43;2.50;;;;;;;2.63;100.00;96125.28;5008562;28;20547;-90
2021/12/07 13:39:44;;;;;;;4.55;4.13;;;;;;;2.63;100.00;96134.06;5017137;28;20075;-88
2021/12/07 13:42:19;;;;;;;10.63;6.07;;;;;;;2.56;100.00;96137.94;5001217;28;20022;-89
2021/12/07 13:45:02;;;;;;;2.45;2.25;;;;;;;2.57;100.00;96142.31;5018300;28;20025;-88
2021/12/07 13:47:30;;;;;;;3.00;2.42;;;;;;;2.30;100.00;96121.81;5017402;28;20033;-88
2021/12/07 13:50:04;;;;;;;1.42;1.33;;;;;;;2.42;100.00;96124.66;5000426;28;20460;-89
2021/12/07 13:52:32;;;;;;;0.95;0.95;;;;;;;2.58;100.00;96136.09;5000215;28;20041;-88
2021/12/07 13:55:00;;;;;;;1.90;1.77;;;;;;;2.34;100.00;96103.09;5003670;28;20094;-86
2021/12/07 13:57:32;;;;;;;1.48;1.38;;;;;;;2.30;100.00;96106.84;5004825;28;20045;-86
2021/12/07 14:00:08;;;;;;;;;;;;;;;2.49;100.00;96135.75;5003106;28;20029;-88
2021/12/07 14:02:34;;;;;;;20.40;3.20;;;;;;;2.27;100.00;96104.34;5011877;28;19913;-88